Evansville Regional Airport
KEVV : now visible

Airfield :











YOU CAN JOIN US ON...

 
LOGIN :

Register | Disclaimer

   EN    FR    IT 

 









Legend :    VFR   Marginal VFR   IFR   Intensive IFR   Very Intensive IFR
Visi :
Ceiling :
>= 8 km
>= 3000ft
5 to 8 km
1000 to 3000 ft
1500m to 5 km
500 to 1000 ft
800 to 1500m
200 to 500 ft
< 800m
< 200 ft
Symbols :   Thunderstorms  Fog  Heavy snow  Heavy precipitations  Wind > 20 kt






- Airport Elevation : 418 ft
- IATA code : EVV


KEVV - Evansville Regional

CURRENT METAR :
  • 250454Z AUTO 04005KT 10SM BKN037 OVC045 11/04 A3007 RMK AO2 SLP183 T01110044

EXPIRED METARs :
  • 250354Z AUTO 03005KT 10SM OVC039 11/04 A3008 RMK AO2 SLP186 T01110044
  • 250254Z AUTO 03006KT 10SM OVC042 11/04 A3008 RMK AO2 SLP186 T01110044 58002

TAF KEVV
Valid from the 25 at 00:00 until the 26 at 00:00 UTC


242320Z 2500/2524 03006KT P6SM SCT025 OVC100
TEMPO 2500/2504 BKN025
FM250400 03006KT P6SM OVC025
FM251200 04006KT P6SM OVC015
FM251800 03007KT P6SM BKN025
KZID FIR / North America



MET'MAP, your aeronautical weather chart ! - Copyright ORBIFLY December 2007 - Disclaimer

ORBIFLY MET'MAP TEAM :

Programming & Development : Alexandra Zaïnal
Concept & original design : Baudouin d'Aumeries
Assistance for programming : Marc-Olivier Méhu
Technical & hardware support : Manuel Goepfert

Contact : metmap@orbifly.com




SOURCES & CREDITS :

   NOAA       Earth
Advisory